Time;durP1;ratioP1;P1;durP2;ratioP2;P2;SDS_P1;SDS_P2;PMS_P1;PMS_P2;Temp;Humidity;BMP_temperature;BMP_pressure;BME280_temperature;BME280_humidity;BME280_pressure;Samples;Min_cycle;Max_cycle;Signal;HPM_P1;HPM_P2
2020/12/17 00:00:16;;;;;;;40.50;32.83;;;;;;;;;;5083162;28;20056;-58
2020/12/17 00:02:42;;;;;;;39.58;33.55;;;;;;;;;;5074619;28;20028;-60
2020/12/17 00:05:08;;;;;;;39.75;34.00;;;;;;;;;;5082539;28;20609;-59
2020/12/17 00:07:36;;;;;;;39.90;32.35;;;;;;;;;;5078733;28;20424;-60
2020/12/17 00:10:02;;;;;;;38.47;33.10;;;;;;;;;;5083116;28;20063;-59
2020/12/17 00:12:28;;;;;;;38.47;33.65;;;;;;;;;;5075445;28;20474;-59
2020/12/17 00:14:54;;;;;;;42.60;32.53;;;;;;;;;;5080116;28;20027;-58
2020/12/17 00:17:20;;;;;;;41.92;33.70;;;;;;;;;;5081265;28;20103;-58
2020/12/17 00:19:46;;;;;;;40.58;32.40;;;;;;;;;;5083213;28;20051;-59
2020/12/17 00:22:12;;;;;;;37.35;32.70;;;;;;;;;;5074901;28;20059;-59
2020/12/17 00:24:38;;;;;;;39.60;32.50;;;;;;;;;;5086844;28;20377;-59
2020/12/17 00:27:04;;;;;;;41.17;32.65;;;;;;;;;;5076687;28;20450;-60
2020/12/17 00:29:30;;;;;;;40.08;33.03;;;;;;;;;;5080120;28;20024;-58
2020/12/17 00:31:56;;;;;;;40.00;33.33;;;;;;;;;;5081180;28;20025;-58
2020/12/17 00:34:22;;;;;;;37.33;31.60;;;;;;;;;;5084049;28;20016;-59
2020/12/17 00:36:52;;;;;;;37.90;32.35;;;;;;;;;;5084402;28;20035;-60
2020/12/17 00:39:18;;;;;;;38.42;30.98;;;;;;;;;;5084033;28;20501;-59
2020/12/17 00:41:44;;;;;;;40.10;31.85;;;;;;;;;;5082767;28;20036;-58
2020/12/17 00:44:11;;;;;;;34.55;30.75;;;;;;;;;;5074848;28;20028;-58
2020/12/17 00:46:37;;;;;;;36.70;30.65;;;;;;;;;;5084462;28;20028;-58
2020/12/17 00:49:03;;;;;;;37.22;31.08;;;;;;;;;;5079483;28;21477;-58
2020/12/17 00:51:29;;;;;;;39.97;31.02;;;;;;;;;;5082949;28;20433;-58
2020/12/17 00:53:55;;;;;;;38.00;31.30;;;;;;;;;;5080482;28;20024;-57
2020/12/17 00:56:21;;;;;;;36.75;31.38;;;;;;;;;;5082194;28;20035;-59
2020/12/17 00:58:47;;;;;;;35.22;29.67;;;;;;;;;;5077628;28;20032;-58
2020/12/17 01:01:13;;;;;;;36.42;31.13;;;;;;;;;;5090268;28;20040;-57
2020/12/17 01:03:39;;;;;;;36.40;30.35;;;;;;;;;;5081613;28;20476;-58
2020/12/17 01:06:08;;;;;;;39.33;31.50;;;;;;;;;;5080443;28;20032;-57
2020/12/17 01:11:38;;;;;;;38.17;31.30;;;;;;;;;;5082117;28;20090;-59
2020/12/17 01:14:04;;;;;;;40.83;31.83;;;;;;;;;;5083677;28;20107;-59
2020/12/17 01:16:31;;;;;;;38.88;32.10;;;;;;;;;;5087342;28;20062;-57
2020/12/17 01:18:56;;;;;;;37.72;32.10;;;;;;;;;;5082979;28;20538;-59
2020/12/17 01:21:23;;;;;;;37.85;30.90;;;;;;;;;;5084750;28;20111;-58
2020/12/17 01:23:48;;;;;;;35.88;30.92;;;;;;;;;;5084962;28;20059;-59
2020/12/17 01:26:15;;;;;;;38.38;32.22;;;;;;;;;;5090293;28;20075;-59
2020/12/17 01:28:41;;;;;;;39.05;31.80;;;;;;;;;;5081039;28;21456;-59
2020/12/17 01:31:08;;;;;;;40.30;30.63;;;;;;;;;;5087707;28;20040;-57
2020/12/17 01:33:34;;;;;;;39.40;30.88;;;;;;;;;;5084370;28;20037;-58
2020/12/17 01:36:02;;;;;;;36.03;29.95;;;;;;;;;;5081329;28;20037;-59
2020/12/17 01:38:28;;;;;;;41.10;31.67;;;;;;;;;;5090686;28;20058;-58
2020/12/17 01:40:55;;;;;;;38.35;31.42;;;;;;;;;;5086205;28;20021;-58
2020/12/17 01:43:27;;;;;;;37.72;30.92;;;;;;;;;;5088652;28;20035;-58
2020/12/17 01:45:53;;;;;;;36.85;30.88;;;;;;;;;;5077110;28;20036;-59
2020/12/17 01:54:26;;;;;;;37.22;31.25;;;;;;;;;;5085682;28;20047;-59
2020/12/17 01:56:56;;;;;;;36.38;30.27;;;;;;;;;;5083546;28;20028;-59
2020/12/17 01:59:23;;;;;;;37.78;31.58;;;;;;;;;;5088637;28;20024;-58
2020/12/17 02:01:50;;;;;;;37.35;31.40;;;;;;;;;;5082313;28;20028;-59
2020/12/17 02:04:16;;;;;;;37.47;31.27;;;;;;;;;;5089582;28;20050;-58
2020/12/17 02:06:42;;;;;;;38.35;31.38;;;;;;;;;;5080426;28;20122;-58
2020/12/17 02:09:08;;;;;;;38.20;30.80;;;;;;;;;;5086261;28;20032;-58
2020/12/17 02:11:35;;;;;;;38.65;32.58;;;;;;;;;;5085707;28;20063;-59
2020/12/17 02:14:01;;;;;;;44.97;33.78;;;;;;;;;;5085493;28;20051;-58
2020/12/17 02:16:27;;;;;;;42.72;32.88;;;;;;;;;;5081308;28;20063;-57
2020/12/17 02:18:53;;;;;;;42.45;33.70;;;;;;;;;;5088404;28;20024;-56
2020/12/17 02:21:22;;;;;;;39.08;31.98;;;;;;;;;;5081781;28;20389;-58
2020/12/17 02:23:48;;;;;;;38.42;31.17;;;;;;;;;;5088187;28;20060;-57
2020/12/17 02:26:14;;;;;;;41.40;33.10;;;;;;;;;;5081266;28;20033;-59
2020/12/17 02:28:41;;;;;;;40.17;33.35;;;;;;;;;;5089099;28;20028;-59
2020/12/17 02:31:07;;;;;;;36.50;31.85;;;;;;;;;;5088606;28;20389;-59
2020/12/17 02:33:34;;;;;;;37.80;32.72;;;;;;;;;;5079851;28;20031;-58
2020/12/17 02:36:00;;;;;;;41.85;32.10;;;;;;;;;;5086044;28;20442;-58
2020/12/17 02:38:27;;;;;;;37.17;31.70;;;;;;;;;;5077133;28;20047;-57
2020/12/17 02:40:53;;;;;;;39.92;31.17;;;;;;;;;;5086192;28;20029;-58
2020/12/17 02:43:19;;;;;;;41.50;32.13;;;;;;;;;;5084073;28;20017;-56
2020/12/17 02:45:48;;;;;;;38.00;31.60;;;;;;;;;;5088369;28;20055;-58
2020/12/17 02:48:15;;;;;;;40.95;32.00;;;;;;;;;;5079977;28;20107;-59
2020/12/17 02:50:41;;;;;;;37.92;30.50;;;;;;;;;;5083179;28;20366;-57
2020/12/17 02:53:08;;;;;;;38.38;32.80;;;;;;;;;;5076762;28;20025;-57
2020/12/17 02:55:34;;;;;;;37.83;32.97;;;;;;;;;;5080398;28;20393;-59
2020/12/17 02:58:00;;;;;;;36.97;31.00;;;;;;;;;;5076655;28;20020;-58
2020/12/17 03:00:26;;;;;;;38.88;32.15;;;;;;;;;;5084732;28;20025;-58
2020/12/17 03:02:52;;;;;;;36.03;32.05;;;;;;;;;;5080656;28;20169;-58
2020/12/17 03:05:18;;;;;;;38.90;31.35;;;;;;;;;;5082875;28;20035;-59
2020/12/17 03:07:45;;;;;;;39.50;31.92;;;;;;;;;;5083414;28;20028;-59
2020/12/17 03:10:12;;;;;;;37.53;32.08;;;;;;;;;;5078152;28;20056;-58
2020/12/17 03:12:42;;;;;;;38.15;31.27;;;;;;;;;;5091427;28;20082;-58
2020/12/17 03:15:08;;;;;;;43.78;33.72;;;;;;;;;;5074200;28;20032;-59
2020/12/17 03:17:35;;;;;;;35.70;30.95;;;;;;;;;;5078569;28;20020;-58
2020/12/17 03:20:01;;;;;;;37.20;30.98;;;;;;;;;;5079433;28;20095;-59
2020/12/17 03:22:27;;;;;;;33.38;29.52;;;;;;;;;;5082697;28;20027;-58
2020/12/17 03:24:53;;;;;;;38.85;30.88;;;;;;;;;;5083635;28;20039;-58
2020/12/17 03:27:19;;;;;;;37.17;30.83;;;;;;;;;;5079528;28;20194;-59
2020/12/17 03:32:48;;;;;;;35.72;30.00;;;;;;;;;;5085456;28;20023;-58
2020/12/17 03:35:14;;;;;;;37.40;31.90;;;;;;;;;;5084811;28;20020;-58
2020/12/17 03:37:40;;;;;;;37.28;31.25;;;;;;;;;;5088585;28;20093;-59
2020/12/17 03:40:06;;;;;;;37.80;31.75;;;;;;;;;;5079037;28;20032;-58
2020/12/17 03:42:33;;;;;;;36.40;31.52;;;;;;;;;;5090582;28;20062;-58
2020/12/17 03:44:59;;;;;;;36.45;31.00;;;;;;;;;;5077450;28;20043;-58
2020/12/17 03:47:25;;;;;;;40.30;31.83;;;;;;;;;;5081623;28;20126;-56
2020/12/17 03:50:19;;;;;;;38.05;33.42;;;;;;;;;;5079868;28;20104;-59
2020/12/17 03:52:45;;;;;;;41.40;32.03;;;;;;;;;;5084567;28;20042;-58
2020/12/17 03:55:11;;;;;;;37.45;31.50;;;;;;;;;;5080985;28;20113;-58
2020/12/17 03:57:37;;;;;;;40.25;31.98;;;;;;;;;;5081498;28;20056;-59
2020/12/17 04:00:04;;;;;;;36.38;31.00;;;;;;;;;;5071676;28;20054;-58
2020/12/17 04:02:30;;;;;;;40.15;32.83;;;;;;;;;;5085967;28;20059;-58
2020/12/17 04:04:56;;;;;;;36.47;30.08;;;;;;;;;;5078534;28;20113;-58
2020/12/17 04:07:22;;;;;;;38.45;32.03;;;;;;;;;;5078807;28;20068;-59
2020/12/17 04:09:48;;;;;;;36.10;30.98;;;;;;;;;;5083706;28;20040;-59
2020/12/17 04:12:14;;;;;;;41.72;32.90;;;;;;;;;;5083450;28;20036;-58
2020/12/17 04:14:41;;;;;;;39.67;31.75;;;;;;;;;;5081523;28;20039;-56
2020/12/17 04:17:07;;;;;;;40.20;32.33;;;;;;;;;;5080791;28;20028;-57
2020/12/17 04:19:33;;;;;;;40.25;32.58;;;;;;;;;;5086406;28;20035;-59
2020/12/17 04:22:02;;;;;;;40.30;34.40;;;;;;;;;;5074747;28;20028;-59
2020/12/17 04:24:29;;;;;;;40.33;32.42;;;;;;;;;;5087612;28;20024;-56
2020/12/17 04:26:56;;;;;;;38.70;33.53;;;;;;;;;;5078203;28;20036;-59
2020/12/17 04:29:22;;;;;;;39.97;32.58;;;;;;;;;;5089173;28;20024;-58
2020/12/17 04:31:48;;;;;;;39.33;32.30;;;;;;;;;;5081923;28;20076;-58
2020/12/17 04:34:19;;;;;;;39.42;33.95;;;;;;;;;;5080086;28;20056;-59
2020/12/17 04:36:45;;;;;;;38.97;32.30;;;;;;;;;;5078700;28;20035;-56
2020/12/17 04:39:11;;;;;;;40.00;32.20;;;;;;;;;;5083914;28;20016;-57
2020/12/17 04:41:41;;;;;;;39.80;31.75;;;;;;;;;;5080693;28;20482;-59
2020/12/17 04:44:07;;;;;;;38.58;32.05;;;;;;;;;;5082027;28;20035;-56
2020/12/17 04:46:35;;;;;;;44.28;32.47;;;;;;;;;;5074607;28;20036;-58
2020/12/17 04:49:02;;;;;;;40.38;33.47;;;;;;;;;;5087926;28;20031;-58
2020/12/17 04:51:29;;;;;;;39.95;33.70;;;;;;;;;;5088568;28;20478;-59
2020/12/17 04:54:00;;;;;;;39.92;31.95;;;;;;;;;;5075350;28;20031;-58
2020/12/17 04:56:27;;;;;;;39.63;32.17;;;;;;;;;;5078473;28;20048;-59
2020/12/17 04:58:58;;;;;;;39.15;30.35;;;;;;;;;;5081867;28;20031;-58
2020/12/17 05:01:27;;;;;;;37.15;30.00;;;;;;;;;;5081818;28;20078;-58
2020/12/17 05:03:54;;;;;;;35.20;29.90;;;;;;;;;;5081114;28;20111;-58
2020/12/17 05:06:22;;;;;;;38.33;30.02;;;;;;;;;;5087332;28;20516;-57
2020/12/17 05:08:50;;;;;;;37.42;28.05;;;;;;;;;;5075020;28;20032;-58
2020/12/17 05:11:16;;;;;;;33.25;28.88;;;;;;;;;;5080554;28;20049;-57
2020/12/17 05:13:42;;;;;;;33.67;29.42;;;;;;;;;;5077390;28;20028;-57
2020/12/17 05:16:08;;;;;;;36.75;28.73;;;;;;;;;;5082736;28;20478;-57
2020/12/17 05:18:34;;;;;;;32.92;26.77;;;;;;;;;;5081028;28;20036;-60
2020/12/17 05:21:01;;;;;;;30.23;26.95;;;;;;;;;;5085192;28;20115;-56
2020/12/17 05:23:27;;;;;;;31.90;26.42;;;;;;;;;;5079579;28;20028;-59
2020/12/17 05:25:53;;;;;;;31.88;25.92;;;;;;;;;;5081002;28;20041;-58
2020/12/17 05:28:19;;;;;;;31.15;24.95;;;;;;;;;;5079337;28;20030;-58
2020/12/17 05:30:45;;;;;;;29.48;25.75;;;;;;;;;;5084845;28;20033;-58
2020/12/17 05:33:11;;;;;;;28.95;24.80;;;;;;;;;;5081576;28;20024;-58
2020/12/17 05:35:41;;;;;;;32.00;24.67;;;;;;;;;;5078678;28;20028;-59
2020/12/17 05:38:08;;;;;;;30.60;25.23;;;;;;;;;;5076381;28;20027;-59
2020/12/17 05:40:38;;;;;;;32.80;24.00;;;;;;;;;;5080490;28;20032;-59
2020/12/17 05:43:04;;;;;;;31.88;24.83;;;;;;;;;;5086923;28;20028;-58
2020/12/17 05:45:31;;;;;;;30.23;23.65;;;;;;;;;;5078188;28;20090;-58
2020/12/17 05:48:09;;;;;;;30.02;25.17;;;;;;;;;;5086908;28;20037;-59
2020/12/17 05:50:35;;;;;;;29.63;24.90;;;;;;;;;;5076933;28;20016;-59
2020/12/17 05:53:03;;;;;;;31.73;24.58;;;;;;;;;;5083383;28;20048;-58
2020/12/17 05:55:32;;;;;;;27.90;23.65;;;;;;;;;;5081352;28;20028;-58
2020/12/17 05:57:58;;;;;;;30.02;25.10;;;;;;;;;;5080725;28;20032;-59
2020/12/17 06:00:24;;;;;;;32.42;25.15;;;;;;;;;;5083454;28;20027;-56
2020/12/17 06:02:50;;;;;;;27.15;21.67;;;;;;;;;;5086939;28;20082;-58
2020/12/17 06:05:17;;;;;;;24.55;21.77;;;;;;;;;;5083985;28;20028;-59
2020/12/17 06:07:48;;;;;;;26.33;21.65;;;;;;;;;;5088027;28;20172;-57
2020/12/17 06:10:19;;;;;;;26.45;21.35;;;;;;;;;;5077525;28;20036;-59
2020/12/17 06:12:45;;;;;;;26.33;21.92;;;;;;;;;;5086048;28;20055;-61
2020/12/17 06:15:14;;;;;;;25.95;22.50;;;;;;;;;;5082604;28;20059;-58
2020/12/17 06:17:43;;;;;;;28.80;23.85;;;;;;;;;;5089024;28;20456;-57
2020/12/17 06:20:09;;;;;;;27.13;22.15;;;;;;;;;;5076586;28;20066;-58
2020/12/17 06:22:35;;;;;;;28.92;22.45;;;;;;;;;;5083514;28;20032;-58
2020/12/17 06:25:01;;;;;;;28.85;22.25;;;;;;;;;;5090638;28;20023;-57
2020/12/17 06:27:32;;;;;;;29.42;22.83;;;;;;;;;;5080296;28;20048;-58
2020/12/17 06:30:07;;;;;;;28.80;22.08;;;;;;;;;;5081293;28;20482;-58
2020/12/17 06:32:35;;;;;;;26.45;20.95;;;;;;;;;;5087143;28;20053;-57
2020/12/17 06:41:15;;;;;;;31.13;23.77;;;;;;;;;;5075702;28;20544;-58
2020/12/17 06:43:41;;;;;;;29.67;25.17;;;;;;;;;;5078169;28;20103;-58
2020/12/17 06:46:27;;;;;;;28.88;23.50;;;;;;;;;;5078987;28;20059;-58
2020/12/17 06:48:54;;;;;;;29.20;24.75;;;;;;;;;;5083836;28;20029;-57
2020/12/17 06:51:37;;;;;;;32.10;25.85;;;;;;;;;;5083040;28;20023;-58
2020/12/17 06:54:05;;;;;;;36.85;26.60;;;;;;;;;;5084117;28;20028;-58
2020/12/17 06:56:31;;;;;;;32.50;25.85;;;;;;;;;;5077769;28;20024;-58
2020/12/17 06:59:16;;;;;;;31.73;26.48;;;;;;;;;;5086176;28;21392;-56
2020/12/17 07:01:42;;;;;;;34.80;26.95;;;;;;;;;;5076402;28;20027;-58
2020/12/17 07:04:09;;;;;;;32.60;27.00;;;;;;;;;;5081941;28;20044;-57
2020/12/17 07:06:35;;;;;;;35.88;27.38;;;;;;;;;;5082965;28;20078;-57
2020/12/17 07:09:01;;;;;;;33.45;28.17;;;;;;;;;;5086248;28;20024;-57
2020/12/17 07:11:48;;;;;;;36.60;26.42;;;;;;;;;;5087591;28;20040;-56
2020/12/17 07:14:26;;;;;;;29.00;25.67;;;;;;;;;;5082755;28;20426;-57
2020/12/17 07:17:00;;;;;;;30.92;25.73;;;;;;;;;;5082762;28;20032;-58
2020/12/17 07:19:26;;;;;;;30.75;25.25;;;;;;;;;;5085184;28;20036;-58
2020/12/17 07:22:00;;;;;;;37.33;26.88;;;;;;;;;;5080622;28;20423;-57
2020/12/17 07:24:27;;;;;;;31.65;25.10;;;;;;;;;;5080306;28;20027;-57
2020/12/17 07:26:54;;;;;;;31.98;25.95;;;;;;;;;;5082812;28;20032;-57
2020/12/17 07:29:28;;;;;;;33.30;26.48;;;;;;;;;;5077815;28;20028;-58
2020/12/17 07:31:55;;;;;;;29.55;26.38;;;;;;;;;;5078378;28;20107;-58
2020/12/17 07:34:20;;;;;;;35.10;27.30;;;;;;;;;;5075815;28;20066;-56
2020/12/17 07:36:50;;;;;;;34.00;26.27;;;;;;;;;;5084942;28;20389;-58
2020/12/17 07:39:16;;;;;;;27.25;23.90;;;;;;;;;;5079795;28;20089;-58
2020/12/17 07:41:42;;;;;;;28.35;23.88;;;;;;;;;;5083058;28;20089;-58
2020/12/17 07:44:09;;;;;;;35.03;24.52;;;;;;;;;;5079785;28;20020;-58
2020/12/17 07:46:36;;;;;;;32.53;25.50;;;;;;;;;;5080461;28;20118;-57
2020/12/17 07:49:03;;;;;;;31.50;24.80;;;;;;;;;;5071314;28;20020;-57
2020/12/17 07:51:30;;;;;;;30.00;24.23;;;;;;;;;;5082639;28;20035;-56
2020/12/17 07:53:56;;;;;;;27.92;23.27;;;;;;;;;;5085418;28;20017;-56
2020/12/17 07:56:22;;;;;;;33.28;24.98;;;;;;;;;;5084335;28;20043;-57
2020/12/17 07:58:49;;;;;;;31.15;24.63;;;;;;;;;;5083407;28;20494;-58
2020/12/17 08:01:15;;;;;;;31.48;25.83;;;;;;;;;;5076169;28;20028;-58
2020/12/17 08:03:42;;;;;;;28.42;24.50;;;;;;;;;;5079199;28;20024;-57
2020/12/17 08:09:12;;;;;;;28.65;24.13;;;;;;;;;;5081291;28;20500;-58
2020/12/17 08:11:38;;;;;;;35.90;27.63;;;;;;;;;;5081406;28;20044;-57
2020/12/17 08:14:08;;;;;;;32.42;27.10;;;;;;;;;;5082151;28;20035;-58
2020/12/17 08:16:34;;;;;;;37.70;30.73;;;;;;;;;;5081149;28;20034;-57
2020/12/17 08:19:01;;;;;;;37.38;29.65;;;;;;;;;;5079213;28;20103;-59
2020/12/17 08:21:28;;;;;;;38.88;30.60;;;;;;;;;;5082176;28;20550;-58
2020/12/17 08:23:54;;;;;;;37.78;30.13;;;;;;;;;;5084722;28;20111;-59
2020/12/17 08:26:28;;;;;;;39.80;29.95;;;;;;;;;;5077907;28;20016;-59
2020/12/17 08:28:54;;;;;;;40.67;30.65;;;;;;;;;;5075304;28;20028;-59
2020/12/17 08:31:21;;;;;;;35.88;29.50;;;;;;;;;;5085026;28;20024;-58
2020/12/17 08:33:54;;;;;;;37.28;30.23;;;;;;;;;;5080827;28;20042;-58
2020/12/17 08:36:25;;;;;;;37.92;28.98;;;;;;;;;;5080387;28;20028;-58
2020/12/17 08:38:59;;;;;;;37.15;29.50;;;;;;;;;;5085884;28;20036;-58
2020/12/17 08:41:26;;;;;;;41.35;31.13;;;;;;;;;;5075723;28;20043;-58
2020/12/17 08:43:53;;;;;;;41.08;30.77;;;;;;;;;;5084145;28;20043;-58
2020/12/17 08:46:20;;;;;;;39.70;30.67;;;;;;;;;;5072998;28;20508;-58
2020/12/17 08:48:47;;;;;;;36.88;30.83;;;;;;;;;;5077019;28;20209;-57
2020/12/17 08:51:16;;;;;;;36.55;30.88;;;;;;;;;;5076073;28;20485;-57
2020/12/17 08:53:43;;;;;;;41.70;32.22;;;;;;;;;;5077697;28;20576;-58
2020/12/17 08:56:14;;;;;;;41.80;33.13;;;;;;;;;;5076910;28;20028;-58
2020/12/17 08:58:59;;;;;;;38.35;31.30;;;;;;;;;;5080770;28;20081;-57
2020/12/17 09:01:35;;;;;;;40.25;33.20;;;;;;;;;;5078954;28;20069;-59
2020/12/17 09:04:08;;;;;;;39.53;31.05;;;;;;;;;;5079356;28;20077;-58
2020/12/17 09:06:34;;;;;;;38.42;31.38;;;;;;;;;;5080254;28;20560;-58
2020/12/17 09:09:11;;;;;;;40.55;31.83;;;;;;;;;;5077285;28;20020;-58
2020/12/17 09:11:37;;;;;;;38.67;31.77;;;;;;;;;;5075004;28;20432;-58
2020/12/17 09:14:07;;;;;;;38.75;31.38;;;;;;;;;;5078100;28;20028;-59
2020/12/17 09:16:34;;;;;;;38.05;31.55;;;;;;;;;;5085861;28;20028;-58
2020/12/17 09:19:06;;;;;;;41.63;32.15;;;;;;;;;;5075607;28;20074;-57
2020/12/17 09:21:32;;;;;;;45.05;35.97;;;;;;;;;;5084275;28;20051;-58
2020/12/17 09:24:01;;;;;;;44.75;32.47;;;;;;;;;;5075483;28;20028;-59
2020/12/17 09:26:29;;;;;;;41.33;31.90;;;;;;;;;;5084871;28;20036;-59
2020/12/17 09:28:57;;;;;;;41.83;32.88;;;;;;;;;;5078074;28;20489;-58
2020/12/17 09:31:24;;;;;;;43.33;33.10;;;;;;;;;;5085254;28;20500;-59
2020/12/17 09:33:50;;;;;;;43.83;34.15;;;;;;;;;;5076646;28;20085;-59
2020/12/17 09:36:18;;;;;;;44.53;33.25;;;;;;;;;;5082500;28;20028;-58
2020/12/17 09:38:44;;;;;;;41.70;33.17;;;;;;;;;;5081181;28;20041;-58
2020/12/17 09:41:10;;;;;;;45.88;33.67;;;;;;;;;;5081381;28;20024;-58
2020/12/17 09:43:46;;;;;;;37.92;32.20;;;;;;;;;;5076075;28;20031;-52
2020/12/17 09:46:12;;;;;;;44.70;32.92;;;;;;;;;;5078086;28;20039;-50
2020/12/17 09:48:38;;;;;;;45.92;33.00;;;;;;;;;;5080537;28;20020;-58
2020/12/17 09:51:06;;;;;;;41.53;32.72;;;;;;;;;;5079820;28;20392;-59
2020/12/17 09:53:35;;;;;;;41.53;32.97;;;;;;;;;;5078072;28;20048;-58
2020/12/17 09:56:01;;;;;;;38.67;32.47;;;;;;;;;;5083189;28;20034;-58
2020/12/17 09:58:27;;;;;;;40.63;32.55;;;;;;;;;;5082071;28;20493;-58
2020/12/17 10:00:53;;;;;;;44.15;34.20;;;;;;;;;;5076447;28;20538;-59
2020/12/17 10:03:20;;;;;;;41.33;33.67;;;;;;;;;;5080306;28;20078;-59
2020/12/17 10:05:46;;;;;;;46.55;33.97;;;;;;;;;;5075930;28;20036;-59
2020/12/17 10:08:12;;;;;;;47.03;34.38;;;;;;;;;;5081583;28;20039;-58
2020/12/17 10:10:38;;;;;;;42.33;35.75;;;;;;;;;;5077006;28;20048;-58
2020/12/17 10:13:06;;;;;;;40.45;34.30;;;;;;;;;;5081464;28;20040;-58
2020/12/17 10:15:32;;;;;;;44.28;35.33;;;;;;;;;;5074624;28;20016;-58
2020/12/17 10:17:58;;;;;;;44.08;36.00;;;;;;;;;;5084332;28;20111;-58
2020/12/17 10:20:24;;;;;;;44.60;35.50;;;;;;;;;;5096430;28;20181;-58
2020/12/17 10:22:51;;;;;;;44.67;36.75;;;;;;;;;;5082769;28;20129;-55
2020/12/17 10:25:17;;;;;;;42.13;34.40;;;;;;;;;;5078803;28;20019;-58
2020/12/17 10:27:44;;;;;;;40.53;34.25;;;;;;;;;;5080260;28;20119;-58
2020/12/17 10:30:10;;;;;;;44.83;35.40;;;;;;;;;;5077618;28;20016;-59
2020/12/17 10:32:41;;;;;;;43.20;35.20;;;;;;;;;;5090133;28;20055;-58
2020/12/17 10:35:07;;;;;;;43.78;36.40;;;;;;;;;;5080665;28;20074;-57
2020/12/17 10:37:34;;;;;;;46.30;37.13;;;;;;;;;;5085617;28;20020;-57
2020/12/17 10:40:00;;;;;;;46.60;36.30;;;;;;;;;;5084822;28;20032;-58
2020/12/17 10:42:26;;;;;;;42.65;35.33;;;;;;;;;;5079443;28;20508;-58
2020/12/17 10:44:52;;;;;;;43.72;36.97;;;;;;;;;;5081820;28;20027;-58
2020/12/17 10:47:21;;;;;;;43.72;36.25;;;;;;;;;;5079011;28;20038;-59
2020/12/17 10:49:47;;;;;;;45.90;35.90;;;;;;;;;;5079113;28;20043;-57
2020/12/17 10:52:13;;;;;;;44.20;35.58;;;;;;;;;;5076991;28;20483;-58
2020/12/17 10:54:39;;;;;;;43.58;35.08;;;;;;;;;;5080110;28;20128;-59
2020/12/17 10:57:06;;;;;;;45.30;36.55;;;;;;;;;;5077325;28;20132;-58
2020/12/17 10:59:32;;;;;;;44.67;35.38;;;;;;;;;;5081129;28;20106;-59
2020/12/17 11:01:58;;;;;;;43.33;36.60;;;;;;;;;;5076654;28;20552;-58
2020/12/17 11:04:25;;;;;;;40.70;35.75;;;;;;;;;;5080410;28;20483;-58
2020/12/17 11:06:54;;;;;;;43.95;35.17;;;;;;;;;;5077689;28;20028;-57
2020/12/17 11:09:20;;;;;;;46.97;35.85;;;;;;;;;;5083499;28;20862;-57
2020/12/17 11:11:50;;;;;;;46.85;38.83;;;;;;;;;;5074076;28;20109;-57
2020/12/17 11:14:16;;;;;;;42.45;35.85;;;;;;;;;;5079651;28;20058;-58
2020/12/17 11:16:42;;;;;;;44.35;37.03;;;;;;;;;;5074297;28;20040;-58
2020/12/17 11:19:08;;;;;;;42.53;36.88;;;;;;;;;;5081098;28;20478;-58
2020/12/17 11:21:34;;;;;;;43.33;36.25;;;;;;;;;;5082659;28;20042;-59
2020/12/17 11:24:01;;;;;;;44.17;35.55;;;;;;;;;;5072543;28;20024;-58
2020/12/17 11:26:27;;;;;;;39.88;34.15;;;;;;;;;;5084957;28;20127;-59
2020/12/17 11:28:56;;;;;;;42.03;36.20;;;;;;;;;;5074864;28;20086;-59
2020/12/17 11:31:23;;;;;;;47.22;36.60;;;;;;;;;;5080033;28;20358;-57
2020/12/17 11:33:49;;;;;;;45.47;36.72;;;;;;;;;;5073798;28;21230;-57
2020/12/17 11:36:15;;;;;;;43.58;35.40;;;;;;;;;;5076449;28;20039;-58
2020/12/17 11:38:41;;;;;;;45.85;36.67;;;;;;;;;;5077596;28;20060;-58
2020/12/17 11:44:12;;;;;;;44.13;35.90;;;;;;;;;;5075059;28;20499;-54
2020/12/17 11:46:38;;;;;;;47.00;36.05;;;;;;;;;;5083581;28;20032;-56
2020/12/17 11:49:04;;;;;;;43.78;36.90;;;;;;;;;;5076321;28;20024;-58
2020/12/17 11:51:30;;;;;;;39.50;34.10;;;;;;;;;;5080438;28;20051;-58
2020/12/17 11:53:56;;;;;;;42.60;34.35;;;;;;;;;;5082670;28;20469;-58
2020/12/17 11:56:23;;;;;;;40.45;35.20;;;;;;;;;;5083140;28;20025;-57
2020/12/17 11:58:48;;;;;;;39.58;35.03;;;;;;;;;;5073896;28;20020;-57
2020/12/17 12:01:14;;;;;;;41.45;34.70;;;;;;;;;;5081854;28;20102;-58
2020/12/17 12:03:42;;;;;;;42.08;34.97;;;;;;;;;;5074296;28;20311;-59
2020/12/17 12:06:08;;;;;;;39.45;32.60;;;;;;;;;;5082000;28;20025;-59
2020/12/17 12:08:34;;;;;;;42.53;33.35;;;;;;;;;;5076459;28;20067;-57
2020/12/17 12:11:00;;;;;;;36.70;29.90;;;;;;;;;;5078113;28;20044;-58
2020/12/17 12:13:26;;;;;;;36.22;29.40;;;;;;;;;;5080676;28;20046;-58
2020/12/17 12:15:53;;;;;;;38.30;30.15;;;;;;;;;;5081283;28;20024;-58
2020/12/17 12:18:19;;;;;;;37.13;31.02;;;;;;;;;;5078436;28;20027;-57
2020/12/17 12:20:45;;;;;;;42.90;30.52;;;;;;;;;;5081054;28;20061;-59
2020/12/17 12:23:15;;;;;;;31.77;28.42;;;;;;;;;;5081400;28;20485;-59
2020/12/17 12:25:41;;;;;;;43.97;33.65;;;;;;;;;;5074071;28;20031;-58
2020/12/17 12:28:07;;;;;;;33.83;27.10;;;;;;;;;;5077065;28;20025;-57
2020/12/17 12:30:33;;;;;;;38.28;28.98;;;;;;;;;;5083111;28;20020;-59
2020/12/17 12:33:00;;;;;;;36.22;29.48;;;;;;;;;;5086552;28;20089;-58
2020/12/17 12:35:26;;;;;;;32.28;26.58;;;;;;;;;;5078552;28;20025;-59
2020/12/17 12:37:52;;;;;;;33.53;28.38;;;;;;;;;;5076533;28;20074;-58
2020/12/17 12:40:18;;;;;;;35.83;29.10;;;;;;;;;;5077296;28;20021;-59
2020/12/17 12:42:48;;;;;;;38.08;31.33;;;;;;;;;;5077056;28;20085;-57
2020/12/17 12:45:14;;;;;;;38.88;31.40;;;;;;;;;;5077241;28;20029;-60
2020/12/17 12:47:40;;;;;;;37.47;32.05;;;;;;;;;;5085697;28;20074;-58
2020/12/17 12:50:06;;;;;;;36.72;32.45;;;;;;;;;;5080463;28;20024;-58
2020/12/17 12:52:32;;;;;;;39.60;31.45;;;;;;;;;;5072414;28;20457;-58
2020/12/17 12:54:58;;;;;;;36.35;29.05;;;;;;;;;;5077037;28;20359;-58
2020/12/17 12:57:24;;;;;;;36.20;26.85;;;;;;;;;;5077397;28;20029;-57
2020/12/17 12:59:50;;;;;;;33.08;27.42;;;;;;;;;;5074002;28;20354;-58
2020/12/17 13:02:16;;;;;;;38.25;29.58;;;;;;;;;;5079046;28;20048;-59
2020/12/17 13:04:42;;;;;;;38.30;32.25;;;;;;;;;;5073058;28;20462;-59
2020/12/17 13:07:08;;;;;;;40.83;31.50;;;;;;;;;;5074931;28;20043;-58
2020/12/17 13:09:34;;;;;;;36.85;31.15;;;;;;;;;;5073984;28;20027;-57
2020/12/17 13:12:00;;;;;;;36.10;30.05;;;;;;;;;;5074123;28;20042;-59
2020/12/17 13:14:26;;;;;;;41.28;31.95;;;;;;;;;;5084133;28;20103;-58
2020/12/17 13:16:52;;;;;;;36.28;31.80;;;;;;;;;;5078949;28;20031;-59
2020/12/17 13:19:18;;;;;;;34.00;28.73;;;;;;;;;;5081685;28;20020;-59
2020/12/17 13:21:44;;;;;;;37.25;28.80;;;;;;;;;;5076203;28;20858;-58
2020/12/17 13:24:10;;;;;;;36.70;28.63;;;;;;;;;;5083169;28;20021;-59
2020/12/17 13:26:36;;;;;;;39.95;28.00;;;;;;;;;;5078592;28;20025;-58
2020/12/17 13:29:02;;;;;;;34.03;28.25;;;;;;;;;;5072566;28;20025;-58
2020/12/17 13:31:28;;;;;;;36.42;28.77;;;;;;;;;;5077191;28;20037;-59
2020/12/17 13:33:56;;;;;;;35.33;27.20;;;;;;;;;;5076968;28;20055;-59
2020/12/17 13:36:22;;;;;;;32.70;26.80;;;;;;;;;;5083172;28;20401;-59
2020/12/17 13:38:48;;;;;;;28.63;25.52;;;;;;;;;;5073887;28;20050;-59
2020/12/17 13:41:14;;;;;;;30.27;25.70;;;;;;;;;;5076729;28;20028;-59
2020/12/17 13:43:40;;;;;;;31.25;25.42;;;;;;;;;;5072655;28;20539;-59
2020/12/17 13:46:06;;;;;;;34.28;25.77;;;;;;;;;;5081338;28;20024;-59
2020/12/17 13:48:32;;;;;;;29.95;24.50;;;;;;;;;;5075677;28;20036;-57
2020/12/17 13:50:58;;;;;;;32.53;25.65;;;;;;;;;;5080314;28;20406;-58
2020/12/17 13:53:24;;;;;;;30.00;25.65;;;;;;;;;;5073512;28;20039;-58
2020/12/17 13:55:54;;;;;;;30.90;25.45;;;;;;;;;;5081930;28;20029;-58
2020/12/17 13:58:20;;;;;;;29.73;25.58;;;;;;;;;;5080908;28;20061;-58
2020/12/17 14:00:46;;;;;;;30.63;26.42;;;;;;;;;;5081935;28;20029;-58
2020/12/17 14:03:12;;;;;;;31.15;23.98;;;;;;;;;;5070060;28;20181;-59
2020/12/17 14:05:38;;;;;;;33.70;25.92;;;;;;;;;;5086976;28;20030;-58
2020/12/17 14:08:04;;;;;;;32.28;26.30;;;;;;;;;;5087939;28;20040;-57
2020/12/17 14:10:30;;;;;;;30.65;25.02;;;;;;;;;;5076048;28;20044;-58
2020/12/17 14:12:56;;;;;;;32.67;24.55;;;;;;;;;;5085812;28;20406;-59
2020/12/17 14:15:23;;;;;;;31.15;25.50;;;;;;;;;;5079243;28;20035;-58
2020/12/17 14:17:49;;;;;;;31.90;25.40;;;;;;;;;;5081749;28;20051;-58
2020/12/17 14:20:15;;;;;;;31.20;25.75;;;;;;;;;;5079301;28;20521;-59
2020/12/17 14:22:41;;;;;;;32.95;27.88;;;;;;;;;;5085807;28;20101;-59
2020/12/17 14:25:07;;;;;;;33.60;28.15;;;;;;;;;;5082088;28;20078;-59
2020/12/17 14:27:33;;;;;;;33.33;29.20;;;;;;;;;;5082161;28;20032;-59
2020/12/17 14:29:59;;;;;;;35.17;28.85;;;;;;;;;;5079926;28;20033;-59
2020/12/17 14:32:25;;;;;;;36.00;28.73;;;;;;;;;;5082865;28;20051;-58
2020/12/17 14:34:54;;;;;;;36.17;27.63;;;;;;;;;;5083325;28;20055;-58
2020/12/17 14:37:20;;;;;;;37.03;29.88;;;;;;;;;;5081345;28;20130;-58
2020/12/17 14:39:46;;;;;;;40.25;30.95;;;;;;;;;;5079097;28;20024;-59